sensor_id;sensor_type;location;lat;lon;timestamp;pressure;altitude;pressure_sealevel;temperature;humidity
71716;BME280;59568;52.128;5.434;2023-06-05T00:00:57;102477.09;;;12.29;71.41
71716;BME280;59568;52.128;5.434;2023-06-05T00:03:24;102478.38;;;12.22;71.20
71716;BME280;59568;52.128;5.434;2023-06-05T00:05:54;102477.56;;;12.21;70.71
71716;BME280;59568;52.128;5.434;2023-06-05T00:08:21;102477.84;;;12.19;71.58
71716;BME280;59568;52.128;5.434;2023-06-05T00:10:48;102484.91;;;12.14;70.73
71716;BME280;59568;52.128;5.434;2023-06-05T00:13:15;102477.28;;;12.12;71.72
71716;BME280;59568;52.128;5.434;2023-06-05T00:15:42;102477.53;;;12.11;71.50
71716;BME280;59568;52.128;5.434;2023-06-05T00:18:09;102473.34;;;12.10;71.21
71716;BME280;59568;52.128;5.434;2023-06-05T00:20:36;102479.38;;;12.10;72.00
71716;BME280;59568;52.128;5.434;2023-06-05T00:23:03;102472.56;;;12.09;71.49
71716;BME280;59568;52.128;5.434;2023-06-05T00:25:30;102470.97;;;12.08;71.79
71716;BME280;59568;52.128;5.434;2023-06-05T00:27:57;102469.13;;;12.04;72.62
71716;BME280;59568;52.128;5.434;2023-06-05T00:30:24;102471.47;;;12.00;72.22
71716;BME280;59568;52.128;5.434;2023-06-05T00:32:51;102463.59;;;12.00;72.22
71716;BME280;59568;52.128;5.434;2023-06-05T00:35:18;102474.03;;;11.95;72.31
71716;BME280;59568;52.128;5.434;2023-06-05T00:37:45;102471.16;;;11.91;72.21
71716;BME280;59568;52.128;5.434;2023-06-05T00:40:14;102466.41;;;11.88;72.47
71716;BME280;59568;52.128;5.434;2023-06-05T00:42:41;102474.25;;;11.88;72.22
71716;BME280;59568;52.128;5.434;2023-06-05T00:45:08;102476.88;;;11.88;72.04
71716;BME280;59568;52.128;5.434;2023-06-05T00:47:35;102469.00;;;11.83;72.63
71716;BME280;59568;52.128;5.434;2023-06-05T00:50:03;102474.72;;;11.80;73.18
71716;BME280;59568;52.128;5.434;2023-06-05T00:52:32;102467.38;;;11.77;72.66
71716;BME280;59568;52.128;5.434;2023-06-05T00:54:59;102478.13;;;11.75;72.93
71716;BME280;59568;52.128;5.434;2023-06-05T00:57:28;102474.66;;;11.70;73.50
71716;BME280;59568;52.128;5.434;2023-06-05T00:59:56;102472.00;;;11.65;73.33
71716;BME280;59568;52.128;5.434;2023-06-05T01:02:23;102474.59;;;11.59;73.11
71716;BME280;59568;52.128;5.434;2023-06-05T01:04:52;102468.84;;;11.63;72.95
71716;BME280;59568;52.128;5.434;2023-06-05T01:07:18;102471.75;;;11.61;73.64
71716;BME280;59568;52.128;5.434;2023-06-05T01:09:48;102477.47;;;11.58;73.61
71716;BME280;59568;52.128;5.434;2023-06-05T01:12:26;102477.41;;;11.53;73.52
71716;BME280;59568;52.128;5.434;2023-06-05T01:14:57;102480.56;;;11.50;73.76
71716;BME280;59568;52.128;5.434;2023-06-05T01:17:30;102474.03;;;11.52;73.35
71716;BME280;59568;52.128;5.434;2023-06-05T01:19:59;102471.91;;;11.49;73.74
71716;BME280;59568;52.128;5.434;2023-06-05T01:22:36;102468.75;;;11.47;73.85
71716;BME280;59568;52.128;5.434;2023-06-05T01:25:07;102467.63;;;11.38;74.43
71716;BME280;59568;52.128;5.434;2023-06-05T01:28:26;102462.38;;;11.33;74.93
71716;BME280;59568;52.128;5.434;2023-06-05T01:30:31;102460.25;;;11.30;74.45
71716;BME280;59568;52.128;5.434;2023-06-05T01:33:27;102459.47;;;11.29;74.11
71716;BME280;59568;52.128;5.434;2023-06-05T01:35:56;102451.84;;;11.28;74.14
71716;BME280;59568;52.128;5.434;2023-06-05T01:38:23;102462.31;;;11.28;74.68
71716;BME280;59568;52.128;5.434;2023-06-05T01:40:51;102449.19;;;11.23;75.31
71716;BME280;59568;52.128;5.434;2023-06-05T01:43:18;102446.84;;;11.21;75.43
71716;BME280;59568;52.128;5.434;2023-06-05T01:45:45;102441.31;;;11.17;75.42
71716;BME280;59568;52.128;5.434;2023-06-05T01:48:14;102442.59;;;11.15;75.70
71716;BME280;59568;52.128;5.434;2023-06-05T01:50:41;102444.97;;;11.16;74.92
71716;BME280;59568;52.128;5.434;2023-06-05T01:53:09;102447.31;;;11.13;74.95
71716;BME280;59568;52.128;5.434;2023-06-05T01:55:39;102449.09;;;11.12;75.70
71716;BME280;59568;52.128;5.434;2023-06-05T01:58:07;102443.31;;;11.05;75.44
71716;BME280;59568;52.128;5.434;2023-06-05T02:00:34;102439.63;;;11.06;75.88
71716;BME280;59568;52.128;5.434;2023-06-05T02:03:03;102443.00;;;11.02;75.77
71716;BME280;59568;52.128;5.434;2023-06-05T02:05:30;102443.78;;;11.02;75.63
71716;BME280;59568;52.128;5.434;2023-06-05T02:07:57;102442.47;;;10.99;75.28
71716;BME280;59568;52.128;5.434;2023-06-05T02:10:25;102437.00;;;11.01;75.67
71716;BME280;59568;52.128;5.434;2023-06-05T02:12:52;102439.84;;;10.99;75.21
71716;BME280;59568;52.128;5.434;2023-06-05T02:15:19;102444.00;;;10.95;75.55
71716;BME280;59568;52.128;5.434;2023-06-05T02:17:46;102437.44;;;10.93;75.65
71716;BME280;59568;52.128;5.434;2023-06-05T02:20:18;102439.75;;;10.89;76.27
71716;BME280;59568;52.128;5.434;2023-06-05T02:22:45;102437.91;;;10.85;76.09
71716;BME280;59568;52.128;5.434;2023-06-05T02:25:16;102435.75;;;10.82;76.21
71716;BME280;59568;52.128;5.434;2023-06-05T02:27:44;102430.47;;;10.76;76.64
71716;BME280;59568;52.128;5.434;2023-06-05T02:30:11;102435.69;;;10.76;76.57
71716;BME280;59568;52.128;5.434;2023-06-05T02:32:39;102422.91;;;10.75;76.65
71716;BME280;59568;52.128;5.434;2023-06-05T02:35:13;102429.38;;;10.72;77.14
71716;BME280;59568;52.128;5.434;2023-06-05T02:37:41;102425.22;;;10.71;76.91
71716;BME280;59568;52.128;5.434;2023-06-05T02:40:12;102422.28;;;10.68;76.90
71716;BME280;59568;52.128;5.434;2023-06-05T02:42:40;102424.91;;;10.68;77.11
71716;BME280;59568;52.128;5.434;2023-06-05T02:45:08;102427.22;;;10.64;76.74
71716;BME280;59568;52.128;5.434;2023-06-05T02:47:35;102421.44;;;10.62;76.57
71716;BME280;59568;52.128;5.434;2023-06-05T02:50:03;102425.13;;;10.61;76.84
71716;BME280;59568;52.128;5.434;2023-06-05T02:52:30;102425.34;;;10.59;76.92
71716;BME280;59568;52.128;5.434;2023-06-05T02:55:02;102423.47;;;10.55;76.84
71716;BME280;59568;52.128;5.434;2023-06-05T02:57:30;102414.31;;;10.52;77.01
71716;BME280;59568;52.128;5.434;2023-06-05T02:59:57;102415.56;;;10.50;77.44
71716;BME280;59568;52.128;5.434;2023-06-05T03:02:24;102416.09;;;10.47;76.89
71716;BME280;59568;52.128;5.434;2023-06-05T03:04:54;102412.19;;;10.49;76.67
71716;BME280;59568;52.128;5.434;2023-06-05T03:07:22;102416.38;;;10.50;76.75
71716;BME280;59568;52.128;5.434;2023-06-05T03:09:49;102412.41;;;10.48;77.19
71716;BME280;59568;52.128;5.434;2023-06-05T03:12:16;102418.44;;;10.48;76.82
71716;BME280;59568;52.128;5.434;2023-06-05T03:14:43;102415.00;;;10.43;77.38
71716;BME280;59568;52.128;5.434;2023-06-05T03:17:10;102410.75;;;10.36;77.65
71716;BME280;59568;52.128;5.434;2023-06-05T03:19:37;102406.84;;;10.39;77.25
71716;BME280;59568;52.128;5.434;2023-06-05T03:22:04;102408.69;;;10.38;77.07
71716;BME280;59568;52.128;5.434;2023-06-05T03:24:31;102402.63;;;10.38;76.84
71716;BME280;59568;52.128;5.434;2023-06-05T03:26:58;102401.38;;;10.41;76.64
71716;BME280;59568;52.128;5.434;2023-06-05T03:29:25;102396.63;;;10.37;76.88
71716;BME280;59568;52.128;5.434;2023-06-05T03:31:52;102406.06;;;10.38;77.27
71716;BME280;59568;52.128;5.434;2023-06-05T03:34:19;102406.63;;;10.41;77.41
71716;BME280;59568;52.128;5.434;2023-06-05T03:36:46;102402.16;;;10.41;77.19
71716;BME280;59568;52.128;5.434;2023-06-05T03:39:15;102403.47;;;10.38;77.46
71716;BME280;59568;52.128;5.434;2023-06-05T03:41:41;102403.94;;;10.35;77.64
71716;BME280;59568;52.128;5.434;2023-06-05T03:44:08;102399.47;;;10.36;77.48
71716;BME280;59568;52.128;5.434;2023-06-05T03:46:35;102403.47;;;10.38;77.42
71716;BME280;59568;52.128;5.434;2023-06-05T03:49:02;102406.31;;;10.37;77.49
71716;BME280;59568;52.128;5.434;2023-06-05T03:51:36;102402.16;;;10.41;77.31
71716;BME280;59568;52.128;5.434;2023-06-05T03:54:03;102401.63;;;10.39;77.34
71716;BME280;59568;52.128;5.434;2023-06-05T03:56:30;102405.56;;;10.42;77.30
71716;BME280;59568;52.128;5.434;2023-06-05T03:59:01;102406.88;;;10.44;77.30
71716;BME280;59568;52.128;5.434;2023-06-05T04:01:46;102407.88;;;10.38;77.95
71716;BME280;59568;52.128;5.434;2023-06-05T04:04:13;102407.88;;;10.38;78.04
71716;BME280;59568;52.128;5.434;2023-06-05T04:06:40;102409.69;;;10.37;78.02
71716;BME280;59568;52.128;5.434;2023-06-05T04:09:07;102409.78;;;10.43;77.74
71716;BME280;59568;52.128;5.434;2023-06-05T04:11:41;102414.78;;;10.49;77.59
71716;BME280;59568;52.128;5.434;2023-06-05T04:14:09;102411.44;;;10.54;77.33
71716;BME280;59568;52.128;5.434;2023-06-05T04:16:37;102411.94;;;10.51;77.95
71716;BME280;59568;52.128;5.434;2023-06-05T04:19:12;102414.59;;;10.56;77.99
71716;BME280;59568;52.128;5.434;2023-06-05T04:21:39;102410.41;;;10.55;78.04
71716;BME280;59568;52.128;5.434;2023-06-05T04:24:08;102418.28;;;10.60;78.31
71716;BME280;59568;52.128;5.434;2023-06-05T04:26:37;102419.09;;;10.61;78.80
71716;BME280;59568;52.128;5.434;2023-06-05T04:29:05;102415.44;;;10.62;78.25
71716;BME280;59568;52.128;5.434;2023-06-05T04:31:44;102415.75;;;10.65;78.57
71716;BME280;59568;52.128;5.434;2023-06-05T04:34:11;102411.16;;;10.77;78.23
71716;BME280;59568;52.128;5.434;2023-06-05T04:36:40;102421.34;;;11.44;79.09
71716;BME280;59568;52.128;5.434;2023-06-05T04:39:07;102416.13;;;12.80;76.33
71716;BME280;59568;52.128;5.434;2023-06-05T04:41:41;102417.38;;;13.75;72.60
71716;BME280;59568;52.128;5.434;2023-06-05T04:44:17;102426.28;;;14.39;69.66
71716;BME280;59568;52.128;5.434;2023-06-05T04:46:45;102432.84;;;14.86;68.17
71716;BME280;59568;52.128;5.434;2023-06-05T04:49:14;102431.06;;;15.11;66.46
71716;BME280;59568;52.128;5.434;2023-06-05T04:51:41;102430.94;;;15.50;64.95
71716;BME280;59568;52.128;5.434;2023-06-05T04:54:10;102437.59;;;15.72;63.84
71716;BME280;59568;52.128;5.434;2023-06-05T04:56:37;102433.59;;;15.98;63.11
71716;BME280;59568;52.128;5.434;2023-06-05T04:59:05;102431.91;;;16.08;61.79
71716;BME280;59568;52.128;5.434;2023-06-05T05:01:32;102436.97;;;16.61;61.03
71716;BME280;59568;52.128;5.434;2023-06-05T05:04:00;102438.91;;;16.74;59.52
71716;BME280;59568;52.128;5.434;2023-06-05T05:06:27;102438.78;;;16.47;59.90
71716;BME280;59568;52.128;5.434;2023-06-05T05:08:54;102435.78;;;16.34;60.10
71716;BME280;59568;52.128;5.434;2023-06-05T05:11:21;102436.84;;;16.52;60.03
71716;BME280;59568;52.128;5.434;2023-06-05T05:13:47;102438.25;;;16.64;60.15
71716;BME280;59568;52.128;5.434;2023-06-05T05:16:14;102435.75;;;16.72;58.75
71716;BME280;59568;52.128;5.434;2023-06-05T05:18:43;102436.75;;;16.57;58.83
71716;BME280;59568;52.128;5.434;2023-06-05T05:21:11;102439.47;;;16.71;59.06
71716;BME280;59568;52.128;5.434;2023-06-05T05:23:38;102445.69;;;17.13;58.00
71716;BME280;59568;52.128;5.434;2023-06-05T05:26:04;102443.88;;;17.55;57.89
71716;BME280;59568;52.128;5.434;2023-06-05T05:28:32;102449.66;;;17.71;56.40
71716;BME280;59568;52.128;5.434;2023-06-05T05:30:59;102437.34;;;17.67;56.53
71716;BME280;59568;52.128;5.434;2023-06-05T05:33:26;102438.81;;;17.87;55.43
71716;BME280;59568;52.128;5.434;2023-06-05T05:35:53;102443.59;;;17.43;56.07
71716;BME280;59568;52.128;5.434;2023-06-05T05:38:20;102432.28;;;17.24;56.92
71716;BME280;59568;52.128;5.434;2023-06-05T05:40:47;102436.88;;;17.18;57.40
71716;BME280;59568;52.128;5.434;2023-06-05T05:43:18;102445.84;;;17.03;57.45
71716;BME280;59568;52.128;5.434;2023-06-05T05:45:45;102441.97;;;17.28;57.20
71716;BME280;59568;52.128;5.434;2023-06-05T05:48:12;102445.66;;;17.00;57.51
71716;BME280;59568;52.128;5.434;2023-06-05T05:50:40;102443.25;;;16.65;57.90
71716;BME280;59568;52.128;5.434;2023-06-05T05:53:07;102440.06;;;16.30;58.80
71716;BME280;59568;52.128;5.434;2023-06-05T05:55:34;102445.78;;;15.94;60.26
71716;BME280;59568;52.128;5.434;2023-06-05T05:58:01;102436.78;;;15.71;61.31
71716;BME280;59568;52.128;5.434;2023-06-05T06:00:28;102436.38;;;16.07;60.62
71716;BME280;59568;52.128;5.434;2023-06-05T06:02:55;102432.69;;;16.08;60.62
71716;BME280;59568;52.128;5.434;2023-06-05T06:05:24;102440.09;;;16.06;61.12
71716;BME280;59568;52.128;5.434;2023-06-05T06:07:51;102436.38;;;15.88;61.44
71716;BME280;59568;52.128;5.434;2023-06-05T06:10:18;102440.13;;;15.82;62.28
71716;BME280;59568;52.128;5.434;2023-06-05T06:12:46;102443.91;;;15.71;62.16
71716;BME280;59568;52.128;5.434;2023-06-05T06:15:13;102444.53;;;15.63;62.26
71716;BME280;59568;52.128;5.434;2023-06-05T06:17:41;102443.63;;;15.48;62.66
71716;BME280;59568;52.128;5.434;2023-06-05T06:20:08;102442.63;;;15.39;63.25
71716;BME280;59568;52.128;5.434;2023-06-05T06:22:38;102446.72;;;15.55;63.66
71716;BME280;59568;52.128;5.434;2023-06-05T06:25:07;102443.78;;;15.57;63.10
71716;BME280;59568;52.128;5.434;2023-06-05T06:27:34;102445.38;;;15.58;62.62
71716;BME280;59568;52.128;5.434;2023-06-05T06:30:02;102442.97;;;15.62;63.92
71716;BME280;59568;52.128;5.434;2023-06-05T06:32:29;102448.44;;;15.65;63.08
71716;BME280;59568;52.128;5.434;2023-06-05T06:34:57;102445.94;;;15.79;62.99
71716;BME280;59568;52.128;5.434;2023-06-05T06:37:24;102452.22;;;15.83;62.65
71716;BME280;59568;52.128;5.434;2023-06-05T06:39:51;102439.56;;;15.85;62.94
71716;BME280;59568;52.128;5.434;2023-06-05T06:42:18;102444.59;;;16.06;62.71
71716;BME280;59568;52.128;5.434;2023-06-05T06:44:45;102446.16;;;16.07;63.29
71716;BME280;59568;52.128;5.434;2023-06-05T06:47:12;102454.31;;;16.29;62.59
71716;BME280;59568;52.128;5.434;2023-06-05T06:49:40;102446.16;;;16.26;62.94
71716;BME280;59568;52.128;5.434;2023-06-05T06:52:07;102444.97;;;16.56;62.42
71716;BME280;59568;52.128;5.434;2023-06-05T06:54:35;102448.25;;;16.67;61.89
71716;BME280;59568;52.128;5.434;2023-06-05T06:57:04;102445.38;;;16.63;62.09
71716;BME280;59568;52.128;5.434;2023-06-05T06:59:31;102453.25;;;16.68;61.28
71716;BME280;59568;52.128;5.434;2023-06-05T07:04:40;102467.09;;;16.60;61.49
71716;BME280;59568;52.128;5.434;2023-06-05T07:07:09;102454.88;;;16.64;61.95
71716;BME280;59568;52.128;5.434;2023-06-05T07:09:37;102467.22;;;16.69;61.06
71716;BME280;59568;52.128;5.434;2023-06-05T07:12:04;102457.81;;;16.63;60.93
71716;BME280;59568;52.128;5.434;2023-06-05T07:14:33;102460.72;;;16.61;61.70
71716;BME280;59568;52.128;5.434;2023-06-05T07:17:03;102468.16;;;16.59;61.66
71716;BME280;59568;52.128;5.434;2023-06-05T07:19:31;102451.75;;;16.62;61.82
71716;BME280;59568;52.128;5.434;2023-06-05T07:22:00;102455.56;;;16.70;61.72
71716;BME280;59568;52.128;5.434;2023-06-05T07:24:29;102458.81;;;16.86;61.41
71716;BME280;59568;52.128;5.434;2023-06-05T07:26:59;102459.88;;;16.85;61.04
71716;BME280;59568;52.128;5.434;2023-06-05T07:29:27;102456.84;;;17.10;61.09
71716;BME280;59568;52.128;5.434;2023-06-05T07:31:55;102463.59;;;17.30;60.54
71716;BME280;59568;52.128;5.434;2023-06-05T07:34:24;102461.19;;;17.34;59.85
71716;BME280;59568;52.128;5.434;2023-06-05T07:36:52;102457.34;;;17.12;60.54
71716;BME280;59568;52.128;5.434;2023-06-05T07:39:20;102460.59;;;17.37;60.39
71716;BME280;59568;52.128;5.434;2023-06-05T07:41:48;102465.28;;;17.40;59.63
71716;BME280;59568;52.128;5.434;2023-06-05T07:44:16;102458.44;;;17.39;59.80
71716;BME280;59568;52.128;5.434;2023-06-05T07:46:46;102460.22;;;17.57;59.17
71716;BME280;59568;52.128;5.434;2023-06-05T07:49:14;102459.66;;;17.61;58.47
71716;BME280;59568;52.128;5.434;2023-06-05T07:51:43;102461.22;;;17.75;59.48
71716;BME280;59568;52.128;5.434;2023-06-05T07:54:11;102452.34;;;17.85;59.35
71716;BME280;59568;52.128;5.434;2023-06-05T07:56:39;102461.72;;;17.91;58.94
71716;BME280;59568;52.128;5.434;2023-06-05T07:59:07;102450.63;;;18.17;58.91
71716;BME280;59568;52.128;5.434;2023-06-05T08:01:35;102445.50;;;18.21;58.23
71716;BME280;59568;52.128;5.434;2023-06-05T08:04:06;102448.75;;;18.17;57.58
71716;BME280;59568;52.128;5.434;2023-06-05T08:06:34;102459.56;;;18.44;57.00
71716;BME280;59568;52.128;5.434;2023-06-05T08:09:05;102453.69;;;18.33;57.51
71716;BME280;59568;52.128;5.434;2023-06-05T08:11:32;102455.59;;;18.55;58.29
71716;BME280;59568;52.128;5.434;2023-06-05T08:13:59;102458.25;;;18.77;56.19
71716;BME280;59568;52.128;5.434;2023-06-05T08:16:27;102455.31;;;18.79;56.07
71716;BME280;59568;52.128;5.434;2023-06-05T08:18:54;102454.78;;;18.91;56.12
71716;BME280;59568;52.128;5.434;2023-06-05T08:21:21;102460.31;;;19.03;55.57
71716;BME280;59568;52.128;5.434;2023-06-05T08:23:48;102452.25;;;19.08;56.72
71716;BME280;59568;52.128;5.434;2023-06-05T08:26:18;102449.88;;;19.07;55.25
71716;BME280;59568;52.128;5.434;2023-06-05T08:28:46;102446.09;;;19.22;55.67
71716;BME280;59568;52.128;5.434;2023-06-05T08:31:13;102445.94;;;19.27;54.94
71716;BME280;59568;52.128;5.434;2023-06-05T08:33:41;102446.09;;;19.22;55.46
71716;BME280;59568;52.128;5.434;2023-06-05T08:36:09;102444.59;;;19.38;55.04
71716;BME280;59568;52.128;5.434;2023-06-05T08:38:36;102439.31;;;19.47;55.12
71716;BME280;59568;52.128;5.434;2023-06-05T08:41:07;102439.59;;;19.36;54.87
71716;BME280;59568;52.128;5.434;2023-06-05T08:43:38;102428.53;;;19.43;55.93
71716;BME280;59568;52.128;5.434;2023-06-05T08:46:08;102436.22;;;19.53;53.96
71716;BME280;59568;52.128;5.434;2023-06-05T08:48:41;102441.69;;;19.66;55.29
71716;BME280;59568;52.128;5.434;2023-06-05T08:51:11;102435.84;;;19.78;55.03
71716;BME280;59568;52.128;5.434;2023-06-05T08:53:41;102429.75;;;19.77;53.72
71716;BME280;59568;52.128;5.434;2023-06-05T08:56:10;102434.47;;;19.80;54.88
71716;BME280;59568;52.128;5.434;2023-06-05T08:58:38;102424.66;;;20.24;53.46
71716;BME280;59568;52.128;5.434;2023-06-05T09:01:05;102427.16;;;20.03;54.17
71716;BME280;59568;52.128;5.434;2023-06-05T09:03:33;102429.81;;;20.29;52.89
71716;BME280;59568;52.128;5.434;2023-06-05T09:06:00;102429.81;;;20.47;53.77
71716;BME280;59568;52.128;5.434;2023-06-05T09:08:32;102432.28;;;20.52;53.07
71716;BME280;59568;52.128;5.434;2023-06-05T09:11:25;102431.81;;;20.50;52.56
71716;BME280;59568;52.128;5.434;2023-06-05T09:13:54;102428.09;;;20.51;52.75
71716;BME280;59568;52.128;5.434;2023-06-05T09:16:31;102425.59;;;20.63;53.48
71716;BME280;59568;52.128;5.434;2023-06-05T09:18:58;102420.72;;;20.83;52.07
71716;BME280;59568;52.128;5.434;2023-06-05T09:21:27;102430.66;;;21.03;50.61
71716;BME280;59568;52.128;5.434;2023-06-05T09:27:05;102424.28;;;20.95;52.46
71716;BME280;59568;52.128;5.434;2023-06-05T09:29:35;102428.38;;;21.23;51.64
71716;BME280;59568;52.128;5.434;2023-06-05T09:32:15;102421.63;;;21.34;50.52
71716;BME280;59568;52.128;5.434;2023-06-05T09:34:43;102417.63;;;21.58;51.57
71716;BME280;59568;52.128;5.434;2023-06-05T09:37:13;102420.63;;;21.77;50.40
71716;BME280;59568;52.128;5.434;2023-06-05T09:39:41;102417.13;;;21.85;49.09
71716;BME280;59568;52.128;5.434;2023-06-05T09:42:12;102422.00;;;21.83;49.92
71716;BME280;59568;52.128;5.434;2023-06-05T09:44:39;102421.56;;;21.81;50.88
71716;BME280;59568;52.128;5.434;2023-06-05T09:47:10;102418.28;;;21.97;50.20
71716;BME280;59568;52.128;5.434;2023-06-05T09:52:10;102412.91;;;21.84;48.45
71716;BME280;59568;52.128;5.434;2023-06-05T09:54:42;102411.81;;;21.85;48.55
71716;BME280;59568;52.128;5.434;2023-06-05T09:57:12;102407.25;;;22.07;48.61
71716;BME280;59568;52.128;5.434;2023-06-05T10:02:16;102402.00;;;21.98;49.82
71716;BME280;59568;52.128;5.434;2023-06-05T10:04:49;102409.47;;;22.05;47.97
71716;BME280;59568;52.128;5.434;2023-06-05T10:07:18;102408.50;;;22.09;49.92
71716;BME280;59568;52.128;5.434;2023-06-05T10:09:49;102410.13;;;22.02;48.20
71716;BME280;59568;52.128;5.434;2023-06-05T10:12:17;102406.34;;;22.03;47.82
71716;BME280;59568;52.128;5.434;2023-06-05T10:14:45;102395.81;;;22.27;48.22
71716;BME280;59568;52.128;5.434;2023-06-05T10:17:13;102392.47;;;22.51;49.13
71716;BME280;59568;52.128;5.434;2023-06-05T10:19:44;102388.44;;;22.91;46.91
71716;BME280;59568;52.128;5.434;2023-06-05T10:22:11;102391.97;;;22.70;48.23
71716;BME280;59568;52.128;5.434;2023-06-05T10:24:46;102384.53;;;22.76;46.11
71716;BME280;59568;52.128;5.434;2023-06-05T10:38:22;102377.88;;;23.44;45.94
71716;BME280;59568;52.128;5.434;2023-06-05T10:41:01;102381.56;;;23.51;46.39
71716;BME280;59568;52.128;5.434;2023-06-05T10:43:49;102375.28;;;23.72;46.51
71716;BME280;59568;52.128;5.434;2023-06-05T10:46:33;102372.97;;;23.70;45.82
71716;BME280;59568;52.128;5.434;2023-06-05T10:51:43;102369.94;;;23.72;45.40
71716;BME280;59568;52.128;5.434;2023-06-05T10:57:02;102374.22;;;23.48;45.18
71716;BME280;59568;52.128;5.434;2023-06-05T10:59:35;102376.44;;;23.59;44.97
71716;BME280;59568;52.128;5.434;2023-06-05T11:02:22;102371.59;;;23.77;46.56
71716;BME280;59568;52.128;5.434;2023-06-05T11:07:25;102370.28;;;23.83;45.01
71716;BME280;59568;52.128;5.434;2023-06-05T11:17:46;102360.47;;;24.15;45.10
71716;BME280;59568;52.128;5.434;2023-06-05T11:28:04;102355.72;;;24.68;42.84
71716;BME280;59568;52.128;5.434;2023-06-05T11:30:40;102350.88;;;24.58;43.28
71716;BME280;59568;52.128;5.434;2023-06-05T11:33:16;102353.66;;;24.78;43.50
71716;BME280;59568;52.128;5.434;2023-06-05T11:35:46;102354.03;;;24.48;42.96
71716;BME280;59568;52.128;5.434;2023-06-05T11:38:19;102344.97;;;24.21;43.77
71716;BME280;59568;52.128;5.434;2023-06-05T11:40:51;102345.91;;;24.28;42.23
71716;BME280;59568;52.128;5.434;2023-06-05T11:43:19;102337.41;;;24.39;43.66
71716;BME280;59568;52.128;5.434;2023-06-05T11:45:54;102334.09;;;24.58;44.16
71716;BME280;59568;52.128;5.434;2023-06-05T11:48:22;102344.34;;;24.71;42.96
71716;BME280;59568;52.128;5.434;2023-06-05T11:51:04;102345.44;;;24.86;43.20
71716;BME280;59568;52.128;5.434;2023-06-05T11:53:32;102325.69;;;24.91;43.87
71716;BME280;59568;52.128;5.434;2023-06-05T11:56:00;102338.88;;;25.00;43.25
71716;BME280;59568;52.128;5.434;2023-06-05T11:58:36;102340.94;;;25.22;42.05
71716;BME280;59568;52.128;5.434;2023-06-05T12:01:12;102340.72;;;25.31;41.70
71716;BME280;59568;52.128;5.434;2023-06-05T12:03:42;102330.03;;;25.15;42.61
71716;BME280;59568;52.128;5.434;2023-06-05T12:06:09;102330.88;;;25.19;40.78
71716;BME280;59568;52.128;5.434;2023-06-05T12:08:39;102333.84;;;25.14;42.36
71716;BME280;59568;52.128;5.434;2023-06-05T12:11:26;102325.38;;;25.28;42.14
71716;BME280;59568;52.128;5.434;2023-06-05T12:13:55;102321.09;;;25.23;42.53
71716;BME280;59568;52.128;5.434;2023-06-05T12:16:39;102330.44;;;25.33;42.49
71716;BME280;59568;52.128;5.434;2023-06-05T12:21:43;102334.31;;;25.00;43.80
71716;BME280;59568;52.128;5.434;2023-06-05T12:24:11;102330.31;;;25.10;43.21
71716;BME280;59568;52.128;5.434;2023-06-05T12:29:23;102328.19;;;25.19;42.38
71716;BME280;59568;52.128;5.434;2023-06-05T12:31:51;102325.09;;;25.33;42.98
71716;BME280;59568;52.128;5.434;2023-06-05T12:34:18;102327.59;;;25.42;42.18
71716;BME280;59568;52.128;5.434;2023-06-05T12:36:45;102334.06;;;25.60;41.52
71716;BME280;59568;52.128;5.434;2023-06-05T12:39:14;102329.19;;;25.85;42.13
71716;BME280;59568;52.128;5.434;2023-06-05T12:41:42;102326.09;;;25.64;41.40
71716;BME280;59568;52.128;5.434;2023-06-05T12:44:10;102321.00;;;25.39;41.07
71716;BME280;59568;52.128;5.434;2023-06-05T12:46:37;102318.84;;;25.25;42.85
71716;BME280;59568;52.128;5.434;2023-06-05T12:49:05;102326.72;;;25.38;41.41
71716;BME280;59568;52.128;5.434;2023-06-05T12:51:32;102316.84;;;25.22;41.60
71716;BME280;59568;52.128;5.434;2023-06-05T12:53:59;102316.31;;;25.17;42.49
71716;BME280;59568;52.128;5.434;2023-06-05T12:56:26;102315.63;;;25.20;43.36
71716;BME280;59568;52.128;5.434;2023-06-05T12:58:58;102316.88;;;25.42;43.12
71716;BME280;59568;52.128;5.434;2023-06-05T13:01:25;102309.25;;;25.63;43.63
71716;BME280;59568;52.128;5.434;2023-06-05T13:03:53;102307.97;;;25.57;41.80
71716;BME280;59568;52.128;5.434;2023-06-05T13:06:20;102311.47;;;25.58;41.93
71716;BME280;59568;52.128;5.434;2023-06-05T13:08:47;102307.94;;;25.54;42.00
71716;BME280;59568;52.128;5.434;2023-06-05T13:11:15;102305.94;;;25.50;42.23
71716;BME280;59568;52.128;5.434;2023-06-05T13:13:42;102290.31;;;25.52;40.94
71716;BME280;59568;52.128;5.434;2023-06-05T13:16:10;102293.50;;;25.58;41.70
71716;BME280;59568;52.128;5.434;2023-06-05T13:18:38;102292.84;;;25.65;41.86
71716;BME280;59568;52.128;5.434;2023-06-05T13:21:05;102292.72;;;25.58;42.68
71716;BME280;59568;52.128;5.434;2023-06-05T13:23:33;102294.56;;;25.54;42.45
71716;BME280;59568;52.128;5.434;2023-06-05T13:26:01;102277.78;;;25.37;43.15
71716;BME280;59568;52.128;5.434;2023-06-05T13:28:29;102272.28;;;25.30;43.87
71716;BME280;59568;52.128;5.434;2023-06-05T13:30:56;102275.47;;;25.36;42.28
71716;BME280;59568;52.128;5.434;2023-06-05T13:33:23;102276.09;;;25.48;42.92
71716;BME280;59568;52.128;5.434;2023-06-05T13:35:53;102270.00;;;25.71;42.40
71716;BME280;59568;52.128;5.434;2023-06-05T13:38:21;102273.69;;;25.63;42.35
71716;BME280;59568;52.128;5.434;2023-06-05T13:40:52;102263.19;;;25.74;42.69
71716;BME280;59568;52.128;5.434;2023-06-05T13:43:19;102261.69;;;25.76;43.36
71716;BME280;59568;52.128;5.434;2023-06-05T13:45:46;102267.63;;;25.66;42.80
71716;BME280;59568;52.128;5.434;2023-06-05T13:48:13;102265.81;;;25.31;43.42
71716;BME280;59568;52.128;5.434;2023-06-05T13:50:40;102261.72;;;25.37;42.95